Terminal Aerodrome Forecast
Issued by NWS

Home | Current Version | Previous Version | Graphics & Text | Print | Product List | Glossary On
Versions: 1 2 3 4 5 6 7 8 9 10 11 12 13 14
000
FTUS42 KMHX 182340
TAFISO
TAF
KISO 182340Z 1900/1924 36008KT P6SM BKN250
      TEMPO 1911/1914 BKN015
     FM191400 33010G18KT P6SM SCT250
     FM191800 33010G18KT P6SM FEW035
     FM191900 33010KT P6SM FEW250
      AMD LTD TO CLD VIS AND WIND=

USA.gov is the U.S. government's official web portal to all federal, state and local government web resources and services.